Eems Servant — PBTI — position and weather

sailwx.info

Track history (hours):
 
Tides and Currents Weather Stations Pressure Air Temp Water Temp Dewpoint Dewpoint Depression Visibility Wind Speed Wind Dir Waves Ship Positions

Eems Servant

Last reported at 2016-Jul-27 14:33 UTC. Time now 2016-Jul-27 15:26 UTC.
Position N 52°56' E 000°16'.

Length 87 m; draft 4.7 m.

Type: Cargo ship. MMSI: 246236000.

Date/timePositionNaut miles runAvg speedWind from/ knotsBaromVisibWave heightAir tempDewpointWater temp
2016-Jul-27 14:33N 52°56' E 000°16'0 0.0
2016-Jul-27 13:33N 52°56' E 000°16'0 0.0
2016-Jul-27 12:33N 52°56' E 000°16'0 0.1
2016-Jul-27 11:33N 52°56' E 000°16'0 0.1
2016-Jul-27 10:24N 52°56' E 000°16'0 0.0
2016-Jul-27 09:30N 52°56' E 000°16'0 0.1
2016-Jul-27 08:33N 52°56' E 000°16'0 0.1
2016-Jul-27 07:33N 52°56' E 000°16'0 0.1
2016-Jul-27 06:33N 52°56' E 000°16'0 0.0
2016-Jul-27 05:33N 52°56' E 000°16'0 0.0
2016-Jul-27 04:33N 52°56' E 000°16'0 0.0
2016-Jul-27 03:24N 52°56' E 000°16'0 0.0
2016-Jul-27 02:30N 52°56' E 000°16'0 0.0
2016-Jul-27 01:30N 52°56' E 000°16'0 0.0
2016-Jul-27 00:33N 52°56' E 000°16'0 0.0
2016-Jul-26 23:33N 52°56' E 000°16'0 0.1
2016-Jul-26 22:30N 52°56' E 000°16'0 0.0
2016-Jul-26 21:27N 52°56' E 000°16'0 0.0
2016-Jul-26 20:30N 52°56' E 000°16'0 0.1
2016-Jul-26 19:09N 52°56' E 000°16'0 0.1
2016-Jul-26 18:33N 52°56' E 000°16'0 0.0
2016-Jul-26 17:30N 52°56' E 000°16'0 0.0
2016-Jul-26 16:27N 52°56' E 000°16'0 0.0
2016-Jul-26 15:33N 52°56' E 000°16'0 0.0
2016-Jul-26 14:30N 52°56' E 000°16'0 0.0
2016-Jul-26 13:30N 52°56' E 000°16'0 0.0
2016-Jul-26 12:30N 52°56' E 000°16'0 0.0
2016-Jul-26 11:30N 52°56' E 000°16'0 0.1
2016-Jul-26 10:33N 52°56' E 000°16'0 0.1
2016-Jul-26 09:30N 52°56' E 000°16'0 0.0
2016-Jul-26 08:33N 52°56' E 000°16'0 0.0
2016-Jul-26 07:30N 52°56' E 000°16'0 0.0
2016-Jul-26 06:27N 52°56' E 000°16'0 0.1
2016-Jul-26 05:30N 52°56' E 000°16'0 0.0
2016-Jul-26 04:33N 52°56' E 000°16'0 0.0
2016-Jul-26 03:33N 52°56' E 000°16'0 0.0
2016-Jul-26 02:30N 52°56' E 000°16'0 0.0
2016-Jul-26 01:33N 52°56' E 000°16'0 0.0
2016-Jul-26 00:33N 52°56' E 000°16'0 0.0
2016-Jul-25 23:33N 52°56' E 000°16'0 0.0
2016-Jul-25 22:33N 52°56' E 000°16'0 0.1
2016-Jul-25 21:33N 52°56' E 000°16'0 0.0
2016-Jul-25 20:34N 52°56' E 000°16'0 0.0
2016-Jul-25 19:33N 52°56' E 000°16'4 4.4
2016-Jul-25 18:33N 52°59' E 000°22'13 9.9
2016-Jul-25 17:16N 53°09' E 000°35'7 8.6
2016-Jul-25 16:29N 53°14' E 000°42'1010.5
2016-Jul-25 15:32N 53°08' E 000°55'19 9.6
2016-Jul-25 13:33N 53°04' E 001°26'8 8.2
2016-Jul-25 12:33N 53°04' E 001°40'7 7.2
2016-Jul-25 11:33N 53°02' E 001°52'117 8.1
2016-Jul-24 21:03N 53°33' E 005°00'5 7.5
2016-Jul-24 20:24N 53°35' E 005°08'7 8.2
2016-Jul-24 19:32N 53°37' E 005°19'9 9.6
2016-Jul-24 18:33N 53°40' E 005°34'1110.6
2016-Jul-24 17:33N 53°44' E 005°51'1110.5
2016-Jul-24 16:33N 53°47' E 006°08'1010.1
2016-Jul-24 15:34N 53°50' E 006°24'9 9.4
2016-Jul-24 14:34N 53°52' E 006°40'10 8.9
2016-Jul-24 13:28N 53°55' E 006°56'7 8.2
2016-Jul-24 12:33N 53°56' E 007°08'18 7.8
2016-Jul-24 10:14N 54°01' E 007°38'6 8.2
2016-Jul-24 09:33N 54°01' E 007°47'9 9.2
2016-Jul-24 08:33N 54°01' E 008°03'1010.4
2016-Jul-24 07:34N 53°60' E 008°20'1211.6
2016-Jul-24 06:33N 53°56' E 008°39'1010.4
2016-Jul-24 05:33N 53°51' E 008°54'9 8.9
2016-Jul-24 04:33N 53°53' E 009°09'1 0.8
2016-Jul-24 03:33N 53°54' E 009°09'0 0.0
2016-Jul-24 02:33N 53°54' E 009°09'6 6.4
2016-Jul-24 01:33N 53°59' E 009°16'31 7.3
2016-Jul-23 21:17N 54°21' E 009°53'5 6.7
2016-Jul-23 20:29N 54°22' E 010°02'4 3.7
2016-Jul-23 19:30N 54°22' E 010°09'5 4.8
2016-Jul-23 18:33N 54°26' E 010°13'16 7.7
2016-Jul-23 16:31N 54°34' E 010°36'9 8.0
2016-Jul-23 15:22N 54°35' E 010°52'6 7.8
2016-Jul-23 14:33N 54°36' E 011°02'9 8.8
2016-Jul-23 13:34N 54°34' E 011°17'9 9.2
2016-Jul-23 12:33N 54°25' E 011°22'9 8.9
2016-Jul-23 11:33N 54°16' E 011°24'9 9.1
2016-Jul-23 10:33N 54°07' E 011°26'7 7.3
2016-Jul-23 09:33N 54°01' E 011°20'8 7.9
2016-Jul-23 08:33N 53°54' E 011°27'0 0.4
2016-Jul-23 07:28N 53°54' E 011°28'0 0.0
2016-Jul-23 06:31N 53°54' E 011°28'0 0.0
2016-Jul-23 04:31N 53°54' E 011°28'0 0.0
2016-Jul-23 03:31N 53°54' E 011°28'0 0.0
2016-Jul-23 02:31N 53°54' E 011°28'0 0.0
2016-Jul-23 01:28N 53°54' E 011°28'0 0.0
2016-Jul-23 00:31N 53°54' E 011°28'0 0.0
2016-Jul-22 23:31N 53°54' E 011°28'0 0.0
2016-Jul-22 22:31N 53°54' E 011°28'0 0.0
2016-Jul-22 21:31N 53°54' E 011°28'0 0.0
2016-Jul-22 20:31N 53°54' E 011°28'0 0.0
2016-Jul-22 19:31N 53°54' E 011°28'0 0.1
2016-Jul-22 18:31N 53°54' E 011°28'0 0.0
2016-Jul-22 17:31N 53°54' E 011°28'0 0.0
2016-Jul-22 16:31N 53°54' E 011°28'0 0.2
2016-Jul-22 15:33N 53°54' E 011°27'0 0.0
2016-Jul-22 14:33N 53°54' E 011°27'0 0.0
2016-Jul-22 13:33N 53°54' E 011°27'0 0.0
2016-Jul-22 12:33N 53°54' E 011°27'0 0.0
2016-Jul-22 11:32N 53°54' E 011°27'0 0.0
2016-Jul-22 10:32N 53°54' E 011°27'0 0.0
2016-Jul-22 09:32N 53°54' E 011°27'0 0.0
2016-Jul-22 08:32N 53°54' E 011°27'0 0.0
2016-Jul-22 07:32N 53°54' E 011°27'0 0.1
2016-Jul-22 04:33N 53°54' E 011°27'7 7.5
2016-Jul-22 03:33N 54°01' E 011°22'9 9.0
2016-Jul-22 02:33N 54°10' E 011°25'9 8.6
2016-Jul-22 01:33N 54°19' E 011°23'8 7.7
2016-Jul-22 00:33N 54°26' E 011°22'7 6.8
2016-Jul-21 23:33N 54°33' E 011°18'7 7.3
2016-Jul-21 22:33N 54°35' E 011°06'9 8.6
2016-Jul-21 21:33N 54°34' E 010°51'19 8.7
2016-Jul-21 19:23N 54°30' E 010°19'8 9.1
2016-Jul-21 18:33N 54°23' E 010°12'3 2.6
2016-Jul-21 17:33N 54°22' E 010°08'6 6.4
2016-Jul-21 16:33N 54°21' E 009°58'28 6.6
2016-Jul-21 12:21N 54°04' E 009°19'4 4.4
2016-Jul-21 11:32N 54°01' E 009°18'8 7.6
2016-Jul-21 10:33N 53°55' E 009°11'1 1.4
2016-Jul-21 09:33N 53°54' E 009°09'6 6.2
2016-Jul-21 08:33N 53°51' E 008°59'7 7.3
2016-Jul-21 07:32N 53°51' E 008°47'7 6.7
2016-Jul-21 06:33N 53°56' E 008°40'7 6.7
2016-Jul-21 05:33N 53°58' E 008°29'7 7.4
2016-Jul-21 04:33N 53°59' E 008°17'9 9.0
2016-Jul-21 03:33N 53°58' E 008°02'20 9.1
2016-Jul-21 01:24N 53°54' E 007°29'8 9.6
2016-Jul-21 00:32N 53°52' E 007°15'1010.1
2016-Jul-20 23:33N 53°49' E 006°59'1010.5
2016-Jul-20 22:33N 53°47' E 006°42'1111.5
2016-Jul-20 21:33N 53°44' E 006°23'1211.8
2016-Jul-20 20:33N 53°40' E 006°04'1212.1
2016-Jul-20 19:33N 53°37' E 005°45'1212.3
2016-Jul-20 18:33N 53°33' E 005°25'1212.0
2016-Jul-20 17:33N 53°27' E 005°07'8 5.9
2016-Jul-20 16:10N 53°19' E 005°04'5 6.2
2016-Jul-20 15:25N 53°16' E 005°10'8 9.9
2016-Jul-20 14:33N 53°11' E 005°21'3 2.9
2016-Jul-20 13:32N 53°12' E 005°26'0 0.0
2016-Jul-20 12:32N 53°12' E 005°26'0 0.0
2016-Jul-20 11:32N 53°12' E 005°26'0 0.0
2016-Jul-20 10:32N 53°12' E 005°26'0 0.0
2016-Jul-20 09:32N 53°12' E 005°26'0 0.0
2016-Jul-20 08:32N 53°12' E 005°26'0 0.0
2016-Jul-20 07:32N 53°12' E 005°26'0 0.4
2016-Jul-20 06:34N 53°11' E 005°26'5 4.7
2016-Jul-20 05:33N 53°12' E 005°18'6 6.4
2016-Jul-20 04:33N 53°16' E 005°10'6 5.1
2016-Jul-20 03:23N 53°19' E 005°01'51 4.7
2016-Jul-19 16:29N 54°10' E 005°04'116 7.2
2016-Jul-19 00:25N 55°46' E 006°58'  
Track history (hours):
 
Tides and Currents Weather Stations Pressure Air Temp Water Temp Dewpoint Dewpoint Depression Visibility Wind Speed Wind Dir Waves Ship Positions

Eems Servant

Last reported at 2016-Jul-27 14:33 UTC. Time now 2016-Jul-27 15:26 UTC.
Position N 52°56' E 000°16'.

Length 87 m; draft 4.7 m.

Type: Cargo ship. MMSI: 246236000.

Date/timePositionNaut miles runAvg speedWind from/ knotsBaromVisibWave heightAir tempDewpointWater temp
2016-Jul-27 14:33N 52°56' E 000°16'0 0.0
2016-Jul-27 13:33N 52°56' E 000°16'0 0.0
2016-Jul-27 12:33N 52°56' E 000°16'0 0.1
2016-Jul-27 11:33N 52°56' E 000°16'0 0.1
2016-Jul-27 10:24N 52°56' E 000°16'0 0.0
2016-Jul-27 09:30N 52°56' E 000°16'0 0.1
2016-Jul-27 08:33N 52°56' E 000°16'0 0.1
2016-Jul-27 07:33N 52°56' E 000°16'0 0.1
2016-Jul-27 06:33N 52°56' E 000°16'0 0.0
2016-Jul-27 05:33N 52°56' E 000°16'0 0.0
2016-Jul-27 04:33N 52°56' E 000°16'0 0.0
2016-Jul-27 03:24N 52°56' E 000°16'0 0.0
2016-Jul-27 02:30N 52°56' E 000°16'0 0.0
2016-Jul-27 01:30N 52°56' E 000°16'0 0.0
2016-Jul-27 00:33N 52°56' E 000°16'0 0.0
2016-Jul-26 23:33N 52°56' E 000°16'0 0.1
2016-Jul-26 22:30N 52°56' E 000°16'0 0.0
2016-Jul-26 21:27N 52°56' E 000°16'0 0.0
2016-Jul-26 20:30N 52°56' E 000°16'0 0.1
2016-Jul-26 19:09N 52°56' E 000°16'0 0.1
2016-Jul-26 18:33N 52°56' E 000°16'0 0.0
2016-Jul-26 17:30N 52°56' E 000°16'0 0.0
2016-Jul-26 16:27N 52°56' E 000°16'0 0.0
2016-Jul-26 15:33N 52°56' E 000°16'0 0.0
2016-Jul-26 14:30N 52°56' E 000°16'0 0.0
2016-Jul-26 13:30N 52°56' E 000°16'0 0.0
2016-Jul-26 12:30N 52°56' E 000°16'0 0.0
2016-Jul-26 11:30N 52°56' E 000°16'0 0.1
2016-Jul-26 10:33N 52°56' E 000°16'0 0.1
2016-Jul-26 09:30N 52°56' E 000°16'0 0.0
2016-Jul-26 08:33N 52°56' E 000°16'0 0.0
2016-Jul-26 07:30N 52°56' E 000°16'0 0.0
2016-Jul-26 06:27N 52°56' E 000°16'0 0.1
2016-Jul-26 05:30N 52°56' E 000°16'0 0.0
2016-Jul-26 04:33N 52°56' E 000°16'0 0.0
2016-Jul-26 03:33N 52°56' E 000°16'0 0.0
2016-Jul-26 02:30N 52°56' E 000°16'0 0.0
2016-Jul-26 01:33N 52°56' E 000°16'0 0.0
2016-Jul-26 00:33N 52°56' E 000°16'0 0.0
2016-Jul-25 23:33N 52°56' E 000°16'0 0.0
2016-Jul-25 22:33N 52°56' E 000°16'0 0.1
2016-Jul-25 21:33N 52°56' E 000°16'0 0.0
2016-Jul-25 20:34N 52°56' E 000°16'0 0.0
2016-Jul-25 19:33N 52°56' E 000°16'4 4.4
2016-Jul-25 18:33N 52°59' E 000°22'13 9.9
2016-Jul-25 17:16N 53°09' E 000°35'7 8.6
2016-Jul-25 16:29N 53°14' E 000°42'1010.5
2016-Jul-25 15:32N 53°08' E 000°55'19 9.6
2016-Jul-25 13:33N 53°04' E 001°26'8 8.2
2016-Jul-25 12:33N 53°04' E 001°40'7 7.2
2016-Jul-25 11:33N 53°02' E 001°52'117 8.1
2016-Jul-24 21:03N 53°33' E 005°00'5 7.5
2016-Jul-24 20:24N 53°35' E 005°08'7 8.2
2016-Jul-24 19:32N 53°37' E 005°19'9 9.6
2016-Jul-24 18:33N 53°40' E 005°34'1110.6
2016-Jul-24 17:33N 53°44' E 005°51'1110.5
2016-Jul-24 16:33N 53°47' E 006°08'1010.1
2016-Jul-24 15:34N 53°50' E 006°24'9 9.4
2016-Jul-24 14:34N 53°52' E 006°40'10 8.9
2016-Jul-24 13:28N 53°55' E 006°56'7 8.2
2016-Jul-24 12:33N 53°56' E 007°08'18 7.8
2016-Jul-24 10:14N 54°01' E 007°38'6 8.2
2016-Jul-24 09:33N 54°01' E 007°47'9 9.2
2016-Jul-24 08:33N 54°01' E 008°03'1010.4
2016-Jul-24 07:34N 53°60' E 008°20'1211.6
2016-Jul-24 06:33N 53°56' E 008°39'1010.4
2016-Jul-24 05:33N 53°51' E 008°54'9 8.9
2016-Jul-24 04:33N 53°53' E 009°09'1 0.8
2016-Jul-24 03:33N 53°54' E 009°09'0 0.0
2016-Jul-24 02:33N 53°54' E 009°09'6 6.4
2016-Jul-24 01:33N 53°59' E 009°16'31 7.3
2016-Jul-23 21:17N 54°21' E 009°53'5 6.7
2016-Jul-23 20:29N 54°22' E 010°02'4 3.7
2016-Jul-23 19:30N 54°22' E 010°09'5 4.8
2016-Jul-23 18:33N 54°26' E 010°13'16 7.7
2016-Jul-23 16:31N 54°34' E 010°36'9 8.0
2016-Jul-23 15:22N 54°35' E 010°52'6 7.8
2016-Jul-23 14:33N 54°36' E 011°02'9 8.8
2016-Jul-23 13:34N 54°34' E 011°17'9 9.2
2016-Jul-23 12:33N 54°25' E 011°22'9 8.9
2016-Jul-23 11:33N 54°16' E 011°24'9 9.1
2016-Jul-23 10:33N 54°07' E 011°26'7 7.3
2016-Jul-23 09:33N 54°01' E 011°20'8 7.9
2016-Jul-23 08:33N 53°54' E 011°27'0 0.4
2016-Jul-23 07:28N 53°54' E 011°28'0 0.0
2016-Jul-23 06:31N 53°54' E 011°28'0 0.0
2016-Jul-23 04:31N 53°54' E 011°28'0 0.0
2016-Jul-23 03:31N 53°54' E 011°28'0 0.0
2016-Jul-23 02:31N 53°54' E 011°28'0 0.0
2016-Jul-23 01:28N 53°54' E 011°28'0 0.0
2016-Jul-23 00:31N 53°54' E 011°28'0 0.0
2016-Jul-22 23:31N 53°54' E 011°28'0 0.0
2016-Jul-22 22:31N 53°54' E 011°28'0 0.0
2016-Jul-22 21:31N 53°54' E 011°28'0 0.0
2016-Jul-22 20:31N 53°54' E 011°28'0 0.0
2016-Jul-22 19:31N 53°54' E 011°28'0 0.1
2016-Jul-22 18:31N 53°54' E 011°28'0 0.0
2016-Jul-22 17:31N 53°54' E 011°28'0 0.0
2016-Jul-22 16:31N 53°54' E 011°28'0 0.2
2016-Jul-22 15:33N 53°54' E 011°27'0 0.0
2016-Jul-22 14:33N 53°54' E 011°27'0 0.0
2016-Jul-22 13:33N 53°54' E 011°27'0 0.0
2016-Jul-22 12:33N 53°54' E 011°27'0 0.0
2016-Jul-22 11:32N 53°54' E 011°27'0 0.0
2016-Jul-22 10:32N 53°54' E 011°27'0 0.0
2016-Jul-22 09:32N 53°54' E 011°27'0 0.0
2016-Jul-22 08:32N 53°54' E 011°27'0 0.0
2016-Jul-22 07:32N 53°54' E 011°27'0 0.1
2016-Jul-22 04:33N 53°54' E 011°27'7 7.5
2016-Jul-22 03:33N 54°01' E 011°22'9 9.0
2016-Jul-22 02:33N 54°10' E 011°25'9 8.6
2016-Jul-22 01:33N 54°19' E 011°23'8 7.7
2016-Jul-22 00:33N 54°26' E 011°22'7 6.8
2016-Jul-21 23:33N 54°33' E 011°18'7 7.3
2016-Jul-21 22:33N 54°35' E 011°06'9 8.6
2016-Jul-21 21:33N 54°34' E 010°51'19 8.7
2016-Jul-21 19:23N 54°30' E 010°19'8 9.1
2016-Jul-21 18:33N 54°23' E 010°12'3 2.6
2016-Jul-21 17:33N 54°22' E 010°08'6 6.4
2016-Jul-21 16:33N 54°21' E 009°58'28 6.6
2016-Jul-21 12:21N 54°04' E 009°19'4 4.4
2016-Jul-21 11:32N 54°01' E 009°18'8 7.6
2016-Jul-21 10:33N 53°55' E 009°11'1 1.4
2016-Jul-21 09:33N 53°54' E 009°09'6 6.2
2016-Jul-21 08:33N 53°51' E 008°59'7 7.3
2016-Jul-21 07:32N 53°51' E 008°47'7 6.7
2016-Jul-21 06:33N 53°56' E 008°40'7 6.7
2016-Jul-21 05:33N 53°58' E 008°29'7 7.4
2016-Jul-21 04:33N 53°59' E 008°17'9 9.0
2016-Jul-21 03:33N 53°58' E 008°02'20 9.1
2016-Jul-21 01:24N 53°54' E 007°29'8 9.6
2016-Jul-21 00:32N 53°52' E 007°15'1010.1
2016-Jul-20 23:33N 53°49' E 006°59'1010.5
2016-Jul-20 22:33N 53°47' E 006°42'1111.5
2016-Jul-20 21:33N 53°44' E 006°23'1211.8
2016-Jul-20 20:33N 53°40' E 006°04'1212.1
2016-Jul-20 19:33N 53°37' E 005°45'1212.3
2016-Jul-20 18:33N 53°33' E 005°25'1212.0
2016-Jul-20 17:33N 53°27' E 005°07'8 5.9
2016-Jul-20 16:10N 53°19' E 005°04'5 6.2
2016-Jul-20 15:25N 53°16' E 005°10'8 9.9
2016-Jul-20 14:33N 53°11' E 005°21'3 2.9
2016-Jul-20 13:32N 53°12' E 005°26'0 0.0
2016-Jul-20 12:32N 53°12' E 005°26'0 0.0
2016-Jul-20 11:32N 53°12' E 005°26'0 0.0
2016-Jul-20 10:32N 53°12' E 005°26'0 0.0
2016-Jul-20 09:32N 53°12' E 005°26'0 0.0
2016-Jul-20 08:32N 53°12' E 005°26'0 0.0
2016-Jul-20 07:32N 53°12' E 005°26'0 0.4
2016-Jul-20 06:34N 53°11' E 005°26'5 4.7
2016-Jul-20 05:33N 53°12' E 005°18'6 6.4
2016-Jul-20 04:33N 53°16' E 005°10'6 5.1
2016-Jul-20 03:23N 53°19' E 005°01'51 4.7
2016-Jul-19 16:29N 54°10' E 005°04'116 7.2
2016-Jul-19 00:25N 55°46' E 006°58'  

Dump ship's entire track history